Time;durP1;ratioP1;P1;durP2;ratioP2;P2;SDS_P1;SDS_P2;PMS_P1;PMS_P2;Temp;Humidity;BMP_temperature;BMP_pressure;BME280_temperature;BME280_humidity;BME280_pressure;Samples;Min_cycle;Max_cycle;Signal;HPM_P1;HPM_P2
2022/09/14 00:00:48;;;;;;;3.83;0.30;;;28.20;55.50;;;;;;5046653;28;22002;-59
2022/09/14 00:03:17;;;;;;;3.25;0.20;;;28.10;55.60;;;;;;5049873;28;20146;-59
2022/09/14 00:05:44;;;;;;;4.03;0.25;;;28.00;56.30;;;;;;5050513;28;20414;-58
2022/09/14 00:08:12;;;;;;;6.57;0.68;;;27.80;56.00;;;;;;5053179;28;20033;-59
2022/09/14 00:10:40;;;;;;;2.13;0.50;;;27.80;56.20;;;;;;5049240;28;20080;-58
2022/09/14 00:13:09;;;;;;;3.55;0.30;;;27.70;56.40;;;;;;5047605;28;20029;-57
2022/09/14 00:15:37;;;;;;;2.83;0.30;;;27.60;56.60;;;;;;5045068;28;20040;-57
2022/09/14 00:18:07;;;;;;;2.60;0.40;;;27.60;56.90;;;;;;5048196;28;20049;-55
2022/09/14 00:20:36;;;;;;;2.47;0.38;;;27.50;57.10;;;;;;5048902;28;20045;-57
2022/09/14 00:23:03;;;;;;;5.65;0.20;;;27.40;57.30;;;;;;5051689;28;20140;-57
2022/09/14 00:25:31;;;;;;;2.53;0.30;;;27.40;57.60;;;;;;5050654;28;20113;-55
2022/09/14 00:27:58;;;;;;;1.55;0.20;;;27.30;57.70;;;;;;5050466;28;20079;-55
2022/09/14 00:30:26;;;;;;;2.05;0.10;;;27.20;58.10;;;;;;5049373;28;20052;-57
2022/09/14 00:32:53;;;;;;;3.75;0.30;;;27.10;58.40;;;;;;5049435;28;20040;-56
2022/09/14 00:35:20;;;;;;;4.00;1.05;;;27.10;58.60;;;;;;5053956;28;20501;-55
2022/09/14 00:37:51;;;;;;;4.03;0.10;;;27.00;58.90;;;;;;5048146;28;20108;-53
2022/09/14 00:40:18;;;;;;;5.35;0.32;;;27.00;59.10;;;;;;5053106;28;20073;-56
2022/09/14 00:42:45;;;;;;;4.80;1.27;;;26.90;59.20;;;;;;5053501;28;20154;-55
2022/09/14 00:45:18;;;;;;;8.27;0.30;;;26.90;59.40;;;;;;5053642;28;20475;-57
2022/09/14 00:47:49;;;;;;;3.42;0.65;;;26.90;59.60;;;;;;5047685;28;20033;-56
2022/09/14 00:50:17;;;;;;;3.55;0.20;;;26.80;59.70;;;;;;5051033;28;20041;-54
2022/09/14 00:52:48;;;;;;;4.70;0.22;;;26.80;59.70;;;;;;5052204;28;20040;-57
2022/09/14 00:55:19;;;;;;;2.13;0.20;;;26.70;59.80;;;;;;5048887;28;20049;-56
2022/09/14 00:57:49;;;;;;;1.60;0.20;;;26.70;59.90;;;;;;5052864;28;20070;-57
2022/09/14 01:00:19;;;;;;;1.05;0.10;;;26.60;60.00;;;;;;5054193;28;20485;-56
2022/09/14 01:02:46;;;;;;;0.65;0.63;;;26.60;60.20;;;;;;5053685;28;20501;-56
2022/09/14 01:05:14;;;;;;;7.15;0.20;;;26.50;60.30;;;;;;5050580;28;20081;-56
2022/09/14 01:08:15;;;;;;;3.25;0.30;;;26.50;60.40;;;;;;5057118;28;20064;-55
2022/09/14 01:10:58;;;;;;;2.67;0.20;;;26.50;60.40;;;;;;4946188;29;20060;-56
2022/09/14 01:13:36;;;;;;;5.57;0.95;;;26.40;60.60;;;;;;4947338;29;20051;-56
2022/09/14 01:16:15;;;;;;;8.93;0.95;;;26.40;60.60;;;;;;4938577;28;20102;-57
2022/09/14 01:18:46;;;;;;;3.75;0.20;;;26.40;60.60;;;;;;4943424;29;20619;-56
2022/09/14 01:21:19;;;;;;;3.20;0.10;;;26.30;60.60;;;;;;4946913;29;20098;-56
2022/09/14 01:23:50;;;;;;;1.80;0.20;;;26.30;60.70;;;;;;4946838;29;20138;-56
2022/09/14 01:26:55;;;;;;;4.90;0.82;;;26.30;60.90;;;;;;4947784;28;20047;-55
2022/09/14 01:29:31;;;;;;;3.95;0.20;;;26.30;60.80;;;;;;4949070;29;20551;-56
2022/09/14 01:32:05;;;;;;;0.63;0.20;;;26.20;61.10;;;;;;4951109;29;20086;-56
2022/09/14 01:34:40;;;;;;;2.33;0.20;;;26.20;61.30;;;;;;4950865;29;20099;-57
2022/09/14 01:37:12;;;;;;;7.90;0.35;;;26.20;61.40;;;;;;4934572;29;20142;-56
2022/09/14 01:39:42;;;;;;;3.92;0.30;;;26.20;61.50;;;;;;4950270;29;20063;-57
2022/09/14 01:42:11;;;;;;;5.18;0.50;;;26.20;61.70;;;;;;4950750;29;20934;-55
2022/09/14 01:44:45;;;;;;;2.50;0.85;;;26.10;61.80;;;;;;4950633;29;20047;-55
2022/09/14 01:47:19;;;;;;;3.22;0.32;;;26.10;61.50;;;;;;4980554;28;20457;-54
2022/09/14 01:49:51;;;;;;;1.83;0.30;;;26.10;61.50;;;;;;5054306;28;20412;-57
2022/09/14 01:52:23;;;;;;;3.85;0.57;;;26.10;61.60;;;;;;5050301;28;20043;-55
2022/09/14 01:54:52;;;;;;;4.70;0.95;;;26.10;61.50;;;;;;5050924;28;20037;-55
2022/09/14 01:57:24;;;;;;;4.90;0.60;;;26.00;61.70;;;;;;5051947;28;20136;-57
2022/09/14 01:59:56;;;;;;;3.13;0.30;;;26.00;62.00;;;;;;5057131;28;20045;-57
2022/09/14 02:02:28;;;;;;;4.00;0.40;;;26.00;62.00;;;;;;5050887;28;20054;-54
2022/09/14 02:05:05;;;;;;;2.03;0.20;;;26.00;62.00;;;;;;5050803;28;20037;-56
2022/09/14 02:07:32;;;;;;;0.82;0.10;;;26.00;61.60;;;;;;5053617;28;20500;-55
2022/09/14 02:10:00;;;;;;;1.40;0.10;;;25.90;61.50;;;;;;5055185;28;20477;-56
2022/09/14 02:12:27;;;;;;;3.53;0.10;;;25.90;61.50;;;;;;5050733;28;20499;-58
2022/09/14 02:14:55;;;;;;;3.72;0.47;;;25.90;61.50;;;;;;5053548;28;20115;-57
2022/09/14 02:17:23;;;;;;;4.30;0.17;;;25.90;61.50;;;;;;5052531;28;20128;-56
2022/09/14 02:19:56;;;;;;;1.40;0.20;;;25.90;61.60;;;;;;5050340;28;20557;-55
2022/09/14 02:22:26;;;;;;;1.90;0.20;;;25.90;61.50;;;;;;5053943;28;20468;-59
2022/09/14 02:24:54;;;;;;;0.65;0.10;;;25.80;61.50;;;;;;5053985;28;20044;-57
2022/09/14 02:27:22;;;;;;;3.35;0.10;;;25.80;61.50;;;;;;5051802;28;20049;-58
2022/09/14 02:29:49;;;;;;;0.30;0.20;;;25.80;61.60;;;;;;5049730;28;20036;-57
2022/09/14 02:32:28;;;;;;;5.05;0.20;;;25.80;61.60;;;;;;5050348;28;20045;-57
2022/09/14 02:35:04;;;;;;;1.27;0.20;;;25.80;61.60;;;;;;5045761;28;20047;-55
2022/09/14 02:37:44;;;;;;;5.25;0.20;;;25.80;61.50;;;;;;5049188;28;20083;-55
2022/09/14 02:40:18;;;;;;;2.92;0.40;;;25.80;61.50;;;;;;5052582;28;20045;-57
2022/09/14 02:42:54;;;;;;;2.08;0.20;;;25.70;61.70;;;;;;5050697;28;20068;-54
2022/09/14 02:45:27;;;;;;;2.30;0.73;;;25.70;61.70;;;;;;5055814;28;20542;-57
2022/09/14 02:48:04;;;;;;;1.55;0.20;;;25.70;61.50;;;;;;5055175;28;20115;-55
2022/09/14 02:50:40;;;;;;;2.13;0.10;;;25.80;61.70;;;;;;5043985;28;20041;-55
2022/09/14 02:53:13;;;;;;;7.75;0.20;;;25.70;61.70;;;;;;5044576;28;20102;-56
2022/09/14 02:55:45;;;;;;;1.90;0.30;;;25.70;61.80;;;;;;5053928;28;20041;-56
2022/09/14 02:58:14;;;;;;;2.05;0.20;;;25.70;61.90;;;;;;5010337;28;20129;-57
2022/09/14 03:00:43;;;;;;;5.75;0.93;;;25.70;61.80;;;;;;5010943;28;20124;-56
2022/09/14 03:03:14;;;;;;;2.08;0.20;;;25.70;61.80;;;;;;5009715;28;20074;-57
2022/09/14 03:05:42;;;;;;;0.85;0.43;;;25.70;61.90;;;;;;5010227;28;20072;-56
2022/09/14 03:08:10;;;;;;;1.40;0.10;;;25.70;61.90;;;;;;5014659;28;20136;-55
2022/09/14 03:10:38;;;;;;;4.78;0.55;;;25.70;61.80;;;;;;5016485;28;20046;-57
2022/09/14 03:13:05;;;;;;;2.83;0.30;;;25.70;61.50;;;;;;5009749;28;20419;-55
2022/09/14 03:15:32;;;;;;;3.72;0.57;;;25.70;61.50;;;;;;5009845;28;20042;-56
2022/09/14 03:17:59;;;;;;;1.38;0.20;;;25.60;61.40;;;;;;5009208;28;20621;-57
2022/09/14 03:20:31;;;;;;;3.88;0.50;;;25.60;61.50;;;;;;5009418;28;20038;-57
2022/09/14 03:22:59;;;;;;;1.20;0.77;;;25.60;61.50;;;;;;5012690;28;20046;-55
2022/09/14 03:25:26;;;;;;;1.35;0.20;;;25.60;61.50;;;;;;5002211;28;20052;-56
2022/09/14 03:27:56;;;;;;;3.85;0.40;;;25.60;61.60;;;;;;5009164;28;20069;-58
2022/09/14 03:30:23;;;;;;;0.88;0.10;;;25.60;61.60;;;;;;5014644;28;20510;-57
2022/09/14 03:32:51;;;;;;;6.78;0.28;;;25.60;61.60;;;;;;5008643;28;20871;-57
2022/09/14 03:35:18;;;;;;;5.32;0.98;;;25.50;61.60;;;;;;5009823;28;20038;-55
2022/09/14 03:37:47;;;;;;;1.75;0.98;;;25.50;61.70;;;;;;5009132;28;20692;-56
2022/09/14 03:40:15;;;;;;;3.00;0.63;;;25.50;61.80;;;;;;5008995;28;20057;-56
2022/09/14 03:42:43;;;;;;;0.65;0.25;;;25.50;62.30;;;;;;5009382;28;20064;-56
2022/09/14 03:45:11;;;;;;;3.08;0.15;;;25.50;61.70;;;;;;5013104;28;20048;-58
2022/09/14 03:47:38;;;;;;;1.58;0.20;;;25.50;61.70;;;;;;5012044;28;20041;-58
2022/09/14 03:50:06;;;;;;;3.25;0.10;;;25.50;61.70;;;;;;5010031;28;20042;-54
2022/09/14 03:52:34;;;;;;;8.23;0.57;;;25.50;61.70;;;;;;5012460;28;20585;-57
2022/09/14 03:55:03;;;;;;;5.53;0.38;;;25.50;61.80;;;;;;5012717;28;20037;-56
2022/09/14 03:57:30;;;;;;;2.78;0.30;;;25.50;61.90;;;;;;5039217;28;20176;-57
2022/09/14 03:59:57;;;;;;;1.33;0.28;;;25.40;61.90;;;;;;5048577;28;20045;-56
2022/09/14 04:02:24;;;;;;;3.85;0.88;;;25.40;62.00;;;;;;5052519;28;20057;-57
2022/09/14 04:04:51;;;;;;;0.68;0.10;;;25.40;62.10;;;;;;5048476;28;20041;-54
2022/09/14 04:07:18;;;;;;;0.20;0.20;;;25.40;62.80;;;;;;5053483;28;20508;-57
2022/09/14 04:09:45;;;;;;;6.78;0.10;;;25.40;62.40;;;;;;5044312;28;20044;-57
2022/09/14 04:12:14;;;;;;;1.45;0.20;;;25.40;62.40;;;;;;5051151;28;20596;-55
2022/09/14 04:14:41;;;;;;;1.77;0.73;;;25.40;62.30;;;;;;5051576;28;20120;-57
2022/09/14 04:17:08;;;;;;;0.90;0.20;;;25.40;62.30;;;;;;5047908;28;20033;-57
2022/09/14 04:19:40;;;;;;;4.35;0.20;;;25.30;62.30;;;;;;5051852;28;20505;-57
2022/09/14 04:22:07;;;;;;;3.22;0.20;;;25.30;62.20;;;;;;5050788;28;20045;-57
2022/09/14 04:24:34;;;;;;;3.33;0.20;;;25.30;62.20;;;;;;5052079;28;20040;-56
2022/09/14 04:27:01;;;;;;;3.47;0.20;;;25.30;62.20;;;;;;5049307;28;20037;-56
2022/09/14 04:29:30;;;;;;;2.60;0.20;;;25.30;62.30;;;;;;5049714;28;20037;-58
2022/09/14 04:31:57;;;;;;;8.57;0.10;;;25.30;62.30;;;;;;5045557;28;20044;-58
2022/09/14 04:34:24;;;;;;;3.92;0.10;;;25.30;62.30;;;;;;5047944;28;20805;-58
2022/09/14 04:36:51;;;;;;;3.22;0.47;;;25.30;62.30;;;;;;5049819;28;20129;-56
2022/09/14 04:39:18;;;;;;;1.50;0.30;;;25.30;62.40;;;;;;5045544;28;20819;-54
2022/09/14 04:41:46;;;;;;;1.40;0.15;;;25.20;62.30;;;;;;5052651;28;20459;-54
2022/09/14 04:44:13;;;;;;;2.58;0.20;;;25.30;62.50;;;;;;5050373;28;20124;-56
2022/09/14 04:46:41;;;;;;;4.85;0.20;;;25.20;62.40;;;;;;5049596;28;20064;-57
2022/09/14 04:49:09;;;;;;;3.63;0.45;;;25.20;62.50;;;;;;5047230;28;20202;-56
2022/09/14 04:51:37;;;;;;;0.38;0.25;;;25.20;62.40;;;;;;5048758;28;20141;-57
2022/09/14 04:54:07;;;;;;;1.05;0.20;;;25.20;62.60;;;;;;5048807;28;20059;-56
2022/09/14 04:56:36;;;;;;;2.35;0.17;;;25.20;62.70;;;;;;5047495;28;20127;-53
2022/09/14 04:59:04;;;;;;;2.63;0.20;;;25.10;62.70;;;;;;5043436;28;20421;-61
2022/09/14 05:01:34;;;;;;;2.15;0.30;;;25.20;62.90;;;;;;5049203;28;20041;-61
2022/09/14 05:04:03;;;;;;;5.00;0.20;;;25.10;62.90;;;;;;5032933;28;20052;-60
2022/09/14 05:06:32;;;;;;;4.97;0.35;;;25.10;63.00;;;;;;5049228;28;20049;-64
2022/09/14 05:09:00;;;;;;;3.10;1.42;;;25.10;63.10;;;;;;5058185;28;20412;-62
2022/09/14 05:11:30;;;;;;;6.72;3.53;;;25.10;63.20;;;;;;5052958;28;20123;-67
2022/09/14 05:13:58;;;;;;;2.58;0.43;;;25.10;63.40;;;;;;5036041;28;20049;-65
2022/09/14 05:16:27;;;;;;;2.05;0.28;;;25.20;63.50;;;;;;5054290;28;20044;-66
2022/09/14 05:18:56;;;;;;;6.28;1.42;;;25.10;63.40;;;;;;5053268;28;20036;-68
2022/09/14 05:21:25;;;;;;;4.35;0.70;;;25.20;63.60;;;;;;5049114;28;20123;-66
2022/09/14 05:23:56;;;;;;;1.15;0.40;;;25.20;63.60;;;;;;5054164;28;20106;-65
2022/09/14 05:26:24;;;;;;;3.22;0.88;;;25.20;63.50;;;;;;5056758;28;20041;-63
2022/09/14 05:28:53;;;;;;;5.03;0.52;;;25.30;63.40;;;;;;5037063;28;20066;-63
2022/09/14 05:31:20;;;;;;;6.38;0.68;;;25.30;63.40;;;;;;5054260;28;20108;-63
2022/09/14 05:33:48;;;;;;;0.95;0.25;;;25.30;63.30;;;;;;5052321;28;20041;-61
2022/09/14 05:36:15;;;;;;;0.52;0.52;;;25.30;63.20;;;;;;5050855;28;20049;-53
2022/09/14 05:38:44;;;;;;;0.85;0.30;;;25.30;63.10;;;;;;5050901;28;20033;-51
2022/09/14 05:41:12;;;;;;;1.48;0.30;;;25.30;63.10;;;;;;5052843;28;20120;-51
2022/09/14 05:43:40;;;;;;;3.15;0.32;;;25.30;63.00;;;;;;5051827;28;20167;-54
2022/09/14 05:46:09;;;;;;;4.15;1.00;;;25.30;63.00;;;;;;5056141;28;20060;-55
2022/09/14 05:48:38;;;;;;;1.65;0.20;;;25.30;63.00;;;;;;5051843;28;20036;-59
2022/09/14 05:51:07;;;;;;;3.15;0.55;;;25.30;63.30;;;;;;5051168;28;20060;-62
2022/09/14 05:53:34;;;;;;;5.70;0.60;;;25.40;63.40;;;;;;5052453;28;20052;-62
2022/09/14 05:56:05;;;;;;;0.77;0.52;;;25.40;63.20;;;;;;5041438;28;20028;-62
2022/09/14 05:58:33;;;;;;;3.60;0.40;;;25.50;63.10;;;;;;5054592;28;20473;-62
2022/09/14 06:01:07;;;;;;;1.67;0.25;;;25.50;63.00;;;;;;5052075;28;20136;-62
2022/09/14 06:03:34;;;;;;;0.82;0.17;;;25.50;62.90;;;;;;5035314;28;20560;-61
2022/09/14 06:06:01;;;;;;;2.83;0.68;;;25.60;63.00;;;;;;5052206;28;20039;-61
2022/09/14 06:08:28;;;;;;;1.45;0.28;;;25.60;62.90;;;;;;5050056;28;20087;-61
2022/09/14 06:10:55;;;;;;;6.60;1.55;;;25.60;62.80;;;;;;5053457;28;20047;-60
2022/09/14 06:13:23;;;;;;;2.88;0.30;;;25.60;62.90;;;;;;5049237;28;20589;-59
2022/09/14 06:15:50;;;;;;;10.23;0.68;;;25.70;62.80;;;;;;5052788;28;20033;-65
2022/09/14 06:18:17;;;;;;;1.25;0.40;;;25.70;62.80;;;;;;5045704;28;20560;-60
2022/09/14 06:20:51;;;;;;;4.70;0.45;;;25.70;62.80;;;;;;5061285;28;20060;-58
2022/09/14 06:23:19;;;;;;;2.50;0.20;;;25.80;62.80;;;;;;5051815;28;20579;-58
2022/09/14 06:25:46;;;;;;;1.38;0.43;;;25.80;62.70;;;;;;5058728;28;20090;-62
2022/09/14 06:28:13;;;;;;;1.27;0.30;;;25.80;62.80;;;;;;5052563;28;20041;-62
2022/09/14 06:30:44;;;;;;;0.32;0.15;;;25.80;62.80;;;;;;5059746;28;20417;-59
2022/09/14 06:33:11;;;;;;;1.42;0.22;;;25.90;62.60;;;;;;5053934;28;20213;-58
2022/09/14 06:35:38;;;;;;;5.57;0.88;;;25.80;62.70;;;;;;5050166;28;20037;-59
2022/09/14 06:38:05;;;;;;;4.15;0.20;;;25.90;62.70;;;;;;5052801;28;20099;-62
2022/09/14 06:40:32;;;;;;;1.75;0.65;;;25.90;62.70;;;;;;5054025;28;20072;-59
2022/09/14 06:43:01;;;;;;;5.35;0.20;;;25.90;62.70;;;;;;5051273;28;20162;-65
2022/09/14 06:45:29;;;;;;;5.80;0.50;;;25.90;62.60;;;;;;5053222;28;20083;-60
2022/09/14 06:47:58;;;;;;;6.28;0.68;;;26.00;62.70;;;;;;5055187;28;20503;-66
2022/09/14 06:50:25;;;;;;;1.52;0.47;;;26.00;62.60;;;;;;5052639;28;20051;-60
2022/09/14 06:52:52;;;;;;;5.15;0.40;;;26.00;62.50;;;;;;5051603;28;20067;-62
2022/09/14 06:55:19;;;;;;;1.63;0.38;;;26.00;62.40;;;;;;5040588;28;20136;-61
2022/09/14 06:57:48;;;;;;;0.57;0.32;;;26.10;62.30;;;;;;5048325;28;20477;-61
2022/09/14 07:00:15;;;;;;;2.45;0.60;;;26.10;62.20;;;;;;5054708;28;20447;-62
2022/09/14 07:02:43;;;;;;;2.05;0.30;;;26.00;62.10;;;;;;5049338;28;20044;-62
2022/09/14 07:05:12;;;;;;;2.85;0.95;;;26.00;62.10;;;;;;5049326;28;20051;-61
2022/09/14 07:07:39;;;;;;;7.13;0.75;;;26.00;62.20;;;;;;5032028;28;20109;-60
2022/09/14 07:10:07;;;;;;;9.25;0.40;;;26.00;62.30;;;;;;5049093;28;20036;-68
2022/09/14 07:12:34;;;;;;;1.58;0.30;;;26.00;62.40;;;;;;5050639;28;20049;-55
2022/09/14 07:15:03;;;;;;;4.38;1.45;;;26.00;62.50;;;;;;5048864;28;20067;-55
2022/09/14 07:17:31;;;;;;;5.43;1.08;;;26.00;62.50;;;;;;5046044;28;20053;-53
2022/09/14 07:19:58;;;;;;;4.22;0.73;;;26.10;62.50;;;;;;5049054;28;20117;-57
2022/09/14 07:22:26;;;;;;;1.98;0.32;;;26.10;62.40;;;;;;5048818;28;20505;-64
2022/09/14 07:24:53;;;;;;;5.93;1.67;;;26.10;62.30;;;;;;5047117;28;20044;-60
2022/09/14 07:27:20;;;;;;;0.55;0.25;;;26.10;62.10;;;;;;5048558;28;20068;-61
2022/09/14 07:29:47;;;;;;;4.45;0.70;;;26.10;62.80;;;;;;5048543;28;20029;-60
2022/09/14 07:32:14;;;;;;;3.15;1.42;;;26.30;63.10;;;;;;5050159;28;20087;-60
2022/09/14 07:34:41;;;;;;;6.43;0.55;;;26.40;63.10;;;;;;5049007;28;20033;-60
2022/09/14 07:37:09;;;;;;;3.72;0.93;;;26.50;63.00;;;;;;5048734;28;20073;-59
2022/09/14 07:39:37;;;;;;;1.55;0.40;;;26.60;62.80;;;;;;5048546;28;20030;-60
2022/09/14 07:42:05;;;;;;;0.63;0.20;;;26.70;62.60;;;;;;5051177;28;20599;-60
2022/09/14 07:44:31;;;;;;;2.83;0.20;;;26.80;62.50;;;;;;5048867;28;20465;-60
2022/09/14 07:47:08;;;;;;;6.43;0.60;;;26.90;62.20;;;;;;5071840;27;20753;-61
2022/09/14 07:49:35;;;;;;;8.07;1.70;;;27.00;62.00;;;;;;5084841;28;20041;-60
2022/09/14 07:52:03;;;;;;;4.22;1.05;;;27.10;61.90;;;;;;5083744;28;20032;-62
2022/09/14 07:54:30;;;;;;;2.25;0.75;;;27.10;61.60;;;;;;5078127;28;20048;-61
2022/09/14 07:56:57;;;;;;;6.35;0.85;;;27.20;61.40;;;;;;5078540;28;20605;-61
2022/09/14 07:59:24;;;;;;;3.25;0.57;;;27.30;61.10;;;;;;5084411;28;20137;-60
2022/09/14 08:01:51;;;;;;;3.85;0.50;;;27.30;60.90;;;;;;5078083;28;20040;-60
2022/09/14 08:04:20;;;;;;;0.88;0.22;;;27.40;60.70;;;;;;5083555;28;20381;-61
2022/09/14 08:06:47;;;;;;;4.57;0.85;;;27.40;60.40;;;;;;5079094;28;20531;-61
2022/09/14 08:09:14;;;;;;;2.65;0.40;;;27.50;60.40;;;;;;5082659;28;20140;-60
2022/09/14 08:11:41;;;;;;;6.78;0.47;;;27.50;60.20;;;;;;5079487;28;20493;-62
2022/09/14 08:14:10;;;;;;;6.07;0.38;;;27.60;60.00;;;;;;5084859;28;20072;-62
2022/09/14 08:16:39;;;;;;;3.38;0.52;;;27.60;59.80;;;;;;5079906;28;20472;-61
2022/09/14 08:19:11;;;;;;;2.63;0.88;;;27.70;59.80;;;;;;5081827;28;20044;-62
2022/09/14 08:21:40;;;;;;;1.38;0.40;;;27.70;59.60;;;;;;5080353;28;20218;-60
2022/09/14 08:24:07;;;;;;;3.83;0.60;;;27.70;59.40;;;;;;5082810;28;20048;-60
2022/09/14 08:26:36;;;;;;;1.80;0.60;;;27.70;59.30;;;;;;5084403;28;20087;-60
2022/09/14 08:29:03;;;;;;;3.40;1.17;;;27.80;59.20;;;;;;5072769;28;20052;-60
2022/09/14 08:31:31;;;;;;;2.25;0.30;;;27.80;59.00;;;;;;5078736;28;20496;-60
2022/09/14 08:34:01;;;;;;;2.30;0.60;;;27.80;58.90;;;;;;5084413;28;20040;-60
2022/09/14 08:36:31;;;;;;;9.40;1.38;;;27.90;58.80;;;;;;5074140;28;20378;-60
2022/09/14 08:39:00;;;;;;;0.77;0.20;;;27.90;58.70;;;;;;5073329;28;20068;-60
2022/09/14 08:41:29;;;;;;;2.60;0.93;;;27.90;59.20;;;;;;5083494;28;20497;-61
2022/09/14 08:44:14;;;;;;;2.25;0.52;;;27.90;58.50;;;;;;5084384;28;20556;-61
2022/09/14 08:46:45;;;;;;;2.97;0.28;;;28.00;58.40;;;;;;5059248;28;20056;-61
2022/09/14 08:49:20;;;;;;;3.10;0.30;;;28.00;58.30;;;;;;5078927;28;20123;-60
2022/09/14 08:51:47;;;;;;;2.42;0.43;;;28.00;58.20;;;;;;5077164;28;20349;-61
2022/09/14 08:54:16;;;;;;;5.53;0.22;;;28.00;58.20;;;;;;5084303;28;20497;-60
2022/09/14 08:56:47;;;;;;;2.90;0.40;;;28.10;58.00;;;;;;5073276;28;20041;-60
2022/09/14 08:59:31;;;;;;;2.85;0.63;;;28.10;57.90;;;;;;5065232;28;20149;-60
2022/09/14 09:02:13;;;;;;;0.35;0.13;;;28.10;57.80;;;;;;5057259;28;20045;-60
2022/09/14 09:04:50;;;;;;;7.32;0.68;;;28.10;57.60;;;;;;5051106;28;20522;-60
2022/09/14 09:07:23;;;;;;;0.70;0.32;;;28.20;57.60;;;;;;5054861;28;20190;-60
2022/09/14 09:09:54;;;;;;;1.23;0.50;;;28.20;57.50;;;;;;5070335;28;20049;-60
2022/09/14 09:12:23;;;;;;;2.45;0.30;;;28.20;57.40;;;;;;5070083;28;20052;-60
2022/09/14 09:14:53;;;;;;;3.50;0.22;;;28.20;57.20;;;;;;5069077;28;20053;-60
2022/09/14 09:17:24;;;;;;;4.35;1.58;;;28.20;57.10;;;;;;5065155;28;20041;-61
2022/09/14 09:19:59;;;;;;;2.47;0.43;;;28.20;56.90;;;;;;5066867;28;20047;-60
2022/09/14 09:22:29;;;;;;;4.87;0.30;;;28.20;56.80;;;;;;5069933;28;20094;-60
2022/09/14 09:25:01;;;;;;;4.20;0.20;;;28.20;56.80;;;;;;5070201;28;20116;-60
2022/09/14 09:27:28;;;;;;;0.95;0.20;;;28.30;56.90;;;;;;5065649;28;20055;-60
2022/09/14 09:29:56;;;;;;;0.32;0.20;;;28.30;56.80;;;;;;5063375;28;20040;-60
2022/09/14 09:32:27;;;;;;;0.60;0.28;;;28.30;56.70;;;;;;5051803;28;20051;-60
2022/09/14 09:35:16;;;;;;;0.10;0.10;;;28.30;56.60;;;;;;5007502;28;20169;-61
2022/09/14 09:37:51;;;;;;;0.73;0.20;;;28.30;56.50;;;;;;5000803;28;20202;-60
2022/09/14 09:40:26;;;;;;;3.50;0.32;;;28.30;57.00;;;;;;5014287;28;20083;-60
2022/09/14 09:43:07;;;;;;;0.77;0.20;;;28.30;56.40;;;;;;5018386;28;20108;-60
2022/09/14 09:45:51;;;;;;;0.52;0.10;;;28.30;56.50;;;;;;5014055;28;20154;-60
2022/09/14 09:48:20;;;;;;;3.40;0.55;;;28.40;56.70;;;;;;5002581;28;20137;-60
2022/09/14 09:50:49;;;;;;;1.00;0.20;;;28.40;56.80;;;;;;5008121;28;20052;-60
2022/09/14 09:53:18;;;;;;;1.58;0.10;;;28.40;56.70;;;;;;5013821;28;20581;-60
2022/09/14 09:55:49;;;;;;;2.13;0.30;;;28.40;56.70;;;;;;5009687;28;20054;-60
2022/09/14 09:58:27;;;;;;;0.60;0.45;;;28.40;56.70;;;;;;5008289;28;20448;-60
2022/09/14 10:00:59;;;;;;;1.45;0.50;;;28.40;56.80;;;;;;5010884;28;20050;-59
2022/09/14 10:03:29;;;;;;;1.10;0.82;;;28.40;56.80;;;;;;5011327;28;20173;-60
2022/09/14 10:06:01;;;;;;;1.75;0.75;;;28.40;56.60;;;;;;5007903;28;20057;-60
2022/09/14 10:08:33;;;;;;;2.30;0.30;;;28.50;56.60;;;;;;5011797;28;20050;-60
2022/09/14 10:11:03;;;;;;;1.67;0.20;;;28.50;56.70;;;;;;5012420;28;20063;-60
2022/09/14 10:13:32;;;;;;;2.05;0.50;;;28.50;56.80;;;;;;5062830;28;20059;-61
2022/09/14 10:16:08;;;;;;;1.48;0.20;;;28.50;56.70;;;;;;5065841;28;20079;-60
2022/09/14 10:18:35;;;;;;;0.40;0.10;;;28.50;56.70;;;;;;5065293;28;20135;-61
2022/09/14 10:21:08;;;;;;;2.88;0.90;;;28.50;56.60;;;;;;5060981;28;20037;-63
2022/09/14 10:23:36;;;;;;;0.20;0.20;;;28.50;56.50;;;;;;5056464;28;20463;-61
2022/09/14 10:26:25;;;;;;;0.68;0.20;;;28.50;56.50;;;;;;5043499;28;20520;-61
2022/09/14 10:28:52;;;;;;;3.90;0.20;;;28.60;56.40;;;;;;5052371;28;20057;-61
2022/09/14 10:31:32;;;;;;;2.20;0.20;;;28.50;56.40;;;;;;5054251;28;20044;-62
2022/09/14 10:34:00;;;;;;;0.82;0.28;;;28.60;56.40;;;;;;5062587;28;20052;-61
2022/09/14 10:36:30;;;;;;;1.08;0.60;;;28.60;56.30;;;;;;5056462;28;20037;-61
2022/09/14 10:39:02;;;;;;;1.17;0.10;;;28.60;56.20;;;;;;5054647;28;20496;-60
2022/09/14 10:41:37;;;;;;;0.30;0.20;;;28.60;56.20;;;;;;5056857;28;20421;-60
2022/09/14 10:44:27;;;;;;;1.13;0.10;;;28.60;56.00;;;;;;5068523;28;20113;-61
2022/09/14 10:47:21;;;;;;;0.65;0.10;;;28.70;56.00;;;;;;5068201;28;20041;-60
2022/09/14 10:50:03;;;;;;;2.25;0.15;;;28.60;55.90;;;;;;5068550;28;20036;-61
2022/09/14 10:52:38;;;;;;;1.40;0.30;;;28.60;55.90;;;;;;5067826;28;20486;-61
2022/09/14 10:55:30;;;;;;;0.25;0.10;;;28.70;55.90;;;;;;5068565;28;20610;-60
2022/09/14 10:58:11;;;;;;;1.38;0.10;;;28.70;55.80;;;;;;5048184;28;20057;-60
2022/09/14 11:00:46;;;;;;;0.30;0.10;;;28.70;55.80;;;;;;5061063;28;20132;-60
2022/09/14 11:03:26;;;;;;;0.10;0.10;;;28.70;55.70;;;;;;5061595;28;20382;-60
2022/09/14 11:06:02;;;;;;;0.10;0.10;;;28.70;55.70;;;;;;5066520;28;20417;-60
2022/09/14 11:08:33;;;;;;;0.40;0.40;;;28.70;55.60;;;;;;5062923;28;20096;-64
2022/09/14 11:11:21;;;;;;;3.47;2.10;;;28.70;55.50;;;;;;5051710;28;20041;-67
2022/09/14 11:14:02;;;;;;;0.22;0.10;;;28.70;54.90;;;;;;5031168;28;20126;-69
2022/09/14 11:16:47;;;;;;;0.82;0.10;;;28.70;52.60;;;;;;5049661;28;20037;-63
2022/09/14 11:19:26;;;;;;;0.20;0.20;;;28.80;51.60;;;;;;5047745;28;20033;-62
2022/09/14 11:22:02;;;;;;;0.80;0.20;;;28.80;50.60;;;;;;5053952;28;20033;-63
2022/09/14 11:24:37;;;;;;;0.28;0.10;;;28.70;51.50;;;;;;5043521;28;20037;-61
2022/09/14 11:27:08;;;;;;;0.10;0.10;;;28.80;51.40;;;;;;5060409;28;20434;-61
2022/09/14 11:29:43;;;;;;;0.60;0.13;;;28.80;51.10;;;;;;5051237;28;20044;-60
2022/09/14 11:32:16;;;;;;;0.00;0.00;;;28.80;51.00;;;;;;5052340;28;20199;-59
2022/09/14 11:34:48;;;;;;;0.55;0.20;;;28.80;50.10;;;;;;5047306;28;20045;-60
2022/09/14 11:37:19;;;;;;;1.85;0.10;;;28.90;50.00;;;;;;5043887;28;20120;-60
2022/09/14 11:39:49;;;;;;;0.20;0.00;;;28.90;49.70;;;;;;5048641;28;20040;-60
2022/09/14 11:42:22;;;;;;;2.28;0.75;;;29.00;49.50;;;;;;5038960;28;20121;-59
2022/09/14 11:44:55;;;;;;;1.65;0.20;;;29.00;49.30;;;;;;5053385;28;20045;-57
2022/09/14 11:47:23;;;;;;;0.80;0.10;;;29.10;49.30;;;;;;5048051;28;20049;-66
2022/09/14 11:49:56;;;;;;;1.20;0.32;;;29.10;49.10;;;;;;5053869;28;20045;-62
2022/09/14 11:52:25;;;;;;;4.10;0.10;;;29.10;48.90;;;;;;5047813;28;20041;-62
2022/09/14 11:54:53;;;;;;;0.65;0.10;;;29.20;49.20;;;;;;5049201;28;20043;-61
2022/09/14 11:57:23;;;;;;;1.33;0.10;;;29.20;49.40;;;;;;5052728;28;20067;-61
2022/09/14 11:59:54;;;;;;;0.10;0.00;;;29.30;49.10;;;;;;5041112;28;20136;-57
2022/09/14 12:02:57;;;;;;;1.38;0.10;;;29.30;49.20;;;;;;5045062;28;20041;-62
2022/09/14 12:05:27;;;;;;;2.00;0.00;;;29.40;48.30;;;;;;5036583;28;20133;-64
2022/09/14 12:08:24;;;;;;;0.50;0.32;;;29.40;47.80;;;;;;5042843;28;20544;-61
2022/09/14 12:11:17;;;;;;;1.17;0.10;;;29.50;47.70;;;;;;5053881;28;20072;-60
2022/09/14 12:13:44;;;;;;;0.30;0.08;;;29.40;47.60;;;;;;5048671;28;20047;-59
2022/09/14 12:16:13;;;;;;;1.27;0.10;;;29.40;47.30;;;;;;5056716;28;20470;-58
2022/09/14 12:18:43;;;;;;;0.05;0.00;;;29.50;47.20;;;;;;5051547;28;20518;-58
2022/09/14 12:21:21;;;;;;;0.40;0.05;;;29.50;47.20;;;;;;5057730;28;20432;-59
2022/09/14 12:23:52;;;;;;;1.75;0.10;;;29.50;47.50;;;;;;5047528;28;20517;-61
2022/09/14 12:26:36;;;;;;;0.20;0.03;;;29.60;47.70;;;;;;5052759;28;20036;-61
2022/09/14 12:29:26;;;;;;;0.40;0.28;;;29.60;47.30;;;;;;5045799;28;20032;-62
2022/09/14 12:32:35;;;;;;;0.43;0.00;;;29.60;47.00;;;;;;5039153;28;20044;-60
2022/09/14 12:35:40;;;;;;;0.05;0.00;;;29.60;46.90;;;;;;5028841;28;20497;-69
2022/09/14 12:39:03;;;;;;;1.40;0.20;;;29.60;47.40;;;;;;5064763;28;20052;-68
2022/09/14 12:41:59;;;;;;;2.38;0.52;;;29.70;47.10;;;;;;5055140;28;20043;-60
2022/09/14 12:44:35;;;;;;;0.63;0.10;;;29.70;47.00;;;;;;5054992;28;20390;-53
2022/09/14 12:47:40;;;;;;;2.42;0.10;;;29.80;47.20;;;;;;5057420;28;20133;-54
2022/09/14 12:50:15;;;;;;;0.00;0.00;;;29.80;47.30;;;;;;5054386;28;20041;-54
2022/09/14 12:52:51;;;;;;;0.22;0.20;;;29.90;47.50;;;;;;5063935;28;20114;-58
2022/09/14 12:55:40;;;;;;;1.15;0.32;;;29.90;47.60;;;;;;5057007;28;20053;-61
2022/09/14 12:58:18;;;;;;;2.00;0.57;;;30.10;47.40;;;;;;5053108;28;20122;-61
2022/09/14 13:00:55;;;;;;;1.17;0.10;;;30.10;47.30;;;;;;5050227;28;20045;-62
2022/09/14 13:03:44;;;;;;;0.13;0.00;;;30.20;46.50;;;;;;5060959;28;20120;-62
2022/09/14 13:06:12;;;;;;;1.60;0.10;;;30.40;46.30;;;;;;5053022;28;20041;-62
2022/09/14 13:08:44;;;;;;;2.10;0.00;;;30.50;46.40;;;;;;5063868;28;20044;-62
2022/09/14 13:11:20;;;;;;;0.90;0.10;;;30.50;46.50;;;;;;5059386;28;20041;-68